San Juan Bautista, California
Current Conditions -  °F | °C
As of 12:50 PM on Thursday 20 Nov 2014 (Local Time) from KCVH Reporting Station
Overcast Overcast  
Wind Chill: 61°   Ceiling: 4900
Heat Index: 61°   Visibility: 10mi
Dew Point: 57°   Wind: 10mph
Humidity: 88%   Direction: 220°SW
Pressure: 30.09"   Gusts: NA
Location:  36.85°N, 121.54°W
Report Text: KCVH 202050Z AUTO 22009KT 10SM FEW017 FEW038 OVC049 16/14 A3009 RMK AO1
Loading
Personal Weather Stations






























Interactive Weather Map New forecast layout! Learn more

10-Day Weather Forecast

Advertisements
Track Severe Weather on mobile